createdAt,value
2018-05-27T00:00:34.405Z,101713.15
2018-05-27T00:03:00.286Z,101708.84
2018-05-27T00:05:26.256Z,101708.46
2018-05-27T00:07:52.132Z,101702.71
2018-05-27T00:10:18.040Z,101702.35
2018-05-27T00:12:43.986Z,101705.68
2018-05-27T00:15:09.876Z,101706.22
2018-05-27T00:17:35.743Z,101697.64
2018-05-27T00:20:01.662Z,101707.14
2018-05-27T00:22:27.579Z,101709.03
2018-05-27T00:24:53.459Z,101705.16
2018-05-27T00:27:19.363Z,101709.90
2018-05-27T00:29:45.240Z,101711.60
2018-05-27T00:32:11.127Z,101706.66
2018-05-27T00:34:37.072Z,101711.78
2018-05-27T00:37:02.971Z,101704.58
2018-05-27T00:39:28.877Z,101696.52
2018-05-27T00:41:54.819Z,101702.59
2018-05-27T00:44:20.732Z,101702.59
2018-05-27T00:46:46.650Z,101703.94
2018-05-27T00:49:12.584Z,101707.42
2018-05-27T00:51:38.457Z,101708.34
2018-05-27T00:54:04.480Z,101702.17
2018-05-27T00:56:30.400Z,101699.52
2018-05-27T00:58:56.312Z,101700.59
2018-05-27T01:01:22.223Z,101702.40
2018-05-27T01:03:48.164Z,101710.85
2018-05-27T01:06:14.070Z,101712.34
2018-05-27T01:08:39.968Z,101708.15
2018-05-27T01:11:05.896Z,101705.61
2018-05-27T01:13:31.819Z,101709.27
2018-05-27T01:15:57.743Z,101704.36
2018-05-27T01:18:23.694Z,101705.90
2018-05-27T01:20:49.571Z,101705.25
2018-05-27T01:23:15.461Z,101698.28
2018-05-27T01:25:41.451Z,101700.62
2018-05-27T01:28:07.348Z,101701.64
2018-05-27T01:30:33.221Z,101699.22
2018-05-27T01:32:59.149Z,101689.55
2018-05-27T01:35:25.080Z,101685.21
2018-05-27T01:37:50.963Z,101681.30
2018-05-27T01:40:16.976Z,101680.44
2018-05-27T01:42:42.860Z,101681.27
2018-05-27T01:45:08.783Z,101680.03
2018-05-27T01:47:34.732Z,101689.47
2018-05-27T01:50:00.628Z,101685.98
2018-05-27T01:52:26.547Z,101694.59
2018-05-27T01:54:52.496Z,101689.58
2018-05-27T01:57:18.395Z,101695.75
2018-05-27T01:59:44.360Z,101687.53
2018-05-27T02:02:10.296Z,101685.77
2018-05-27T02:04:36.196Z,101687.55
2018-05-27T02:07:02.722Z,101682.76
2018-05-27T02:09:28.664Z,101676.64
2018-05-27T02:11:54.560Z,101676.06
2018-05-27T02:14:20.459Z,101673.83
2018-05-27T02:16:46.381Z,101684.28
2018-05-27T02:19:12.296Z,101677.83
2018-05-27T02:21:38.185Z,101670.81
2018-05-27T02:24:04.135Z,101671.79
2018-05-27T02:26:30.011Z,101669.13
2018-05-27T02:28:56.752Z,101669.28
2018-05-27T02:31:22.708Z,101671.34
2018-05-27T02:33:48.597Z,101672.29
2018-05-27T02:36:14.494Z,101672.88
2018-05-27T02:38:40.461Z,101672.48
2018-05-27T02:41:06.343Z,101670.07
2018-05-27T02:43:32.251Z,101669.45
2018-05-27T02:45:58.706Z,101667.48
2018-05-27T02:48:24.588Z,101667.52
2018-05-27T02:50:50.486Z,101667.13
2018-05-27T02:53:16.496Z,101666.33
2018-05-27T02:55:42.396Z,101667.30
2018-05-27T02:58:08.292Z,101666.39
2018-05-27T03:00:34.374Z,101662.06
2018-05-27T03:03:00.269Z,101667.45
2018-05-27T03:05:26.256Z,101668.67
2018-05-27T03:07:52.204Z,101661.27
2018-05-27T03:10:18.120Z,101672.30
2018-05-27T03:12:44.083Z,101666.58
2018-05-27T03:15:10.042Z,101675.04
2018-05-27T03:17:35.940Z,101670.52
2018-05-27T03:20:01.880Z,101661.61
2018-05-27T03:22:27.911Z,101663.38
2018-05-27T03:24:53.808Z,101662.46
2018-05-27T03:27:19.783Z,101667.06
2018-05-27T03:29:45.814Z,101667.87
2018-05-27T03:32:11.699Z,101663.84
2018-05-27T03:34:37.584Z,101667.28
2018-05-27T03:37:03.588Z,101661.73
2018-05-27T03:39:29.543Z,101656.59
2018-05-27T03:41:55.447Z,101661.41
2018-05-27T03:44:21.366Z,101658.86
2018-05-27T03:46:47.330Z,101661.02
2018-05-27T03:49:13.205Z,101666.07
2018-05-27T03:51:39.167Z,101669.25
2018-05-27T03:54:05.063Z,101668.10
2018-05-27T03:56:30.943Z,101666.47
2018-05-27T03:58:56.876Z,101665.03
2018-05-27T04:01:22.836Z,101667.19
2018-05-27T04:03:54.586Z,101672.61
2018-05-27T04:06:32.941Z,101672.48
2018-05-27T04:08:58.823Z,101674.45
2018-05-27T04:11:24.741Z,101677.02
2018-05-27T04:13:50.664Z,101670.83
2018-05-27T04:16:16.555Z,101660.55
2018-05-27T04:18:42.521Z,101661.33
2018-05-27T04:21:08.479Z,101659.78
2018-05-27T04:23:34.372Z,101651.74
2018-05-27T04:26:00.268Z,101656.59
2018-05-27T04:28:26.307Z,101646.70
2018-05-27T04:30:52.215Z,101657.17
2018-05-27T04:33:18.099Z,101655.75
2018-05-27T04:35:44.026Z,101649.86
2018-05-27T04:38:09.916Z,101654.88
2018-05-27T04:40:35.882Z,101656.06
2018-05-27T04:43:01.831Z,101653.39
2018-05-27T04:45:27.754Z,101665.09
2018-05-27T04:47:53.641Z,101665.42
2018-05-27T04:50:19.632Z,101669.29
2018-05-27T04:52:45.547Z,101671.48
2018-05-27T04:55:11.470Z,101672.81
2018-05-27T04:57:37.549Z,101670.39
2018-05-27T05:00:04.479Z,101669.31
2018-05-27T05:02:30.427Z,101665.52
2018-05-27T05:04:56.368Z,101665.73
2018-05-27T05:07:22.252Z,101662.98
2018-05-27T05:09:48.215Z,101666.14
2018-05-27T05:12:14.140Z,101668.45
2018-05-27T05:14:40.104Z,101664.37
2018-05-27T05:17:05.992Z,101674.73
2018-05-27T05:19:31.915Z,101680.48
2018-05-27T05:21:57.807Z,101679.77
2018-05-27T05:24:23.711Z,101688.61
2018-05-27T05:26:49.796Z,101687.70
2018-05-27T05:29:15.693Z,101688.22
2018-05-27T05:31:41.583Z,101687.70
2018-05-27T05:34:07.600Z,101692.89
2018-05-27T05:36:33.523Z,101690.07
2018-05-27T05:38:59.477Z,101694.98
2018-05-27T05:41:25.467Z,101701.18
2018-05-27T05:43:51.343Z,101703.32
2018-05-27T05:46:18.156Z,101700.48
2018-05-27T05:48:44.097Z,101699.67
2018-05-27T05:51:09.995Z,101702.58
2018-05-27T05:53:36.484Z,101697.88
2018-05-27T05:56:02.443Z,101701.38
2018-05-27T05:58:28.323Z,101706.61
2018-05-27T06:00:54.217Z,101693.00
2018-05-27T06:03:20.271Z,101702.38
2018-05-27T06:05:46.263Z,101704.93
2018-05-27T06:08:12.153Z,101707.35
2018-05-27T06:10:38.155Z,101702.27
2018-05-27T06:13:04.088Z,101705.41
2018-05-27T06:15:30.074Z,101707.27
2018-05-27T06:17:56.101Z,101711.73
2018-05-27T06:20:22.067Z,101716.56
2018-05-27T06:22:48.063Z,101712.48
2018-05-27T06:25:14.028Z,101708.69
2018-05-27T06:27:40.401Z,101706.70
2018-05-27T06:30:06.382Z,101703.30
2018-05-27T06:32:32.309Z,101700.89
2018-05-27T06:34:58.225Z,101705.30
2018-05-27T06:37:24.165Z,101707.98
2018-05-27T06:39:50.182Z,101718.37
2018-05-27T06:42:16.188Z,101712.68
2018-05-27T06:44:42.080Z,101716.05
2018-05-27T06:47:08.320Z,101710.48
2018-05-27T06:49:34.221Z,101711.51
2018-05-27T06:52:00.099Z,101713.42
2018-05-27T06:54:26.151Z,101714.17
2018-05-27T06:56:52.051Z,101715.31
2018-05-27T06:59:17.942Z,101711.16
2018-05-27T07:01:43.867Z,101718.44
2018-05-27T07:04:09.830Z,101715.17
2018-05-27T07:06:36.625Z,101714.87
2018-05-27T07:09:02.675Z,101716.92
2018-05-27T07:11:28.583Z,101716.13
2018-05-27T07:13:54.507Z,101707.89
2018-05-27T07:16:20.457Z,101709.16
2018-05-27T07:18:46.411Z,101705.13
2018-05-27T07:21:12.298Z,101709.91
2018-05-27T07:23:38.280Z,101714.13
2018-05-27T07:26:04.159Z,101706.81
2018-05-27T07:28:30.096Z,101709.87
2018-05-27T07:30:56.115Z,101702.67
2018-05-27T07:33:22.918Z,101699.13
2018-05-27T07:35:48.811Z,101701.47
2018-05-27T07:38:14.748Z,101702.53
2018-05-27T07:40:40.672Z,101710.38
2018-05-27T07:43:06.699Z,101710.36
2018-05-27T07:45:32.700Z,101700.58
2018-05-27T07:47:58.572Z,101705.41
2018-05-27T07:50:25.346Z,101706.29
2018-05-27T07:52:51.293Z,101699.58
2018-05-27T07:55:20.720Z,101705.68
2018-05-27T07:57:47.434Z,101704.32
2018-05-27T08:00:13.512Z,101700.00
2018-05-27T08:02:39.389Z,101703.17
2018-05-27T08:05:05.361Z,101706.48
2018-05-27T08:07:31.403Z,101702.56
2018-05-27T08:09:57.275Z,101696.11
2018-05-27T08:12:23.180Z,101704.92
2018-05-27T08:14:49.107Z,101709.66
2018-05-27T08:17:14.968Z,101706.30
2018-05-27T08:19:40.920Z,101712.81
2018-05-27T08:22:06.847Z,101709.53
2018-05-27T08:24:32.741Z,101716.67
2018-05-27T08:26:58.612Z,101716.30
2018-05-27T08:29:25.426Z,101706.19
2018-05-27T08:31:51.335Z,101709.32
2018-05-27T08:34:17.204Z,101709.27
2018-05-27T08:36:43.211Z,101708.45
2018-05-27T08:39:09.075Z,101699.26
2018-05-27T08:41:34.954Z,101701.21
2018-05-27T08:44:00.899Z,101705.69
2018-05-27T08:46:26.804Z,101715.48
2018-05-27T08:48:52.763Z,101708.97
2018-05-27T08:51:18.671Z,101708.08
2018-05-27T08:53:45.564Z,101705.57
2018-05-27T08:56:11.476Z,101708.37
2018-05-27T08:58:37.826Z,101710.61
2018-05-27T09:01:04.635Z,101708.08
2018-05-27T09:03:30.539Z,101708.90
2018-05-27T09:05:56.467Z,101714.73
2018-05-27T09:08:22.340Z,101712.57
2018-05-27T09:10:48.315Z,101715.45
2018-05-27T09:13:14.252Z,101714.48
2018-05-27T09:15:40.152Z,101708.67
2018-05-27T09:18:06.034Z,101714.40
2018-05-27T09:20:32.775Z,101710.77
2018-05-27T09:22:58.742Z,101711.31
2018-05-27T09:25:24.631Z,101707.98
2018-05-27T09:27:50.665Z,101707.97
2018-05-27T09:30:16.544Z,101713.64
2018-05-27T09:32:42.425Z,101710.40
2018-05-27T09:35:08.426Z,101708.06
2018-05-27T09:37:35.177Z,101706.70
2018-05-27T09:40:01.060Z,101702.14
2018-05-27T09:42:27.016Z,101692.15
2018-05-27T09:44:52.917Z,101695.13
2018-05-27T09:47:18.895Z,101693.51
2018-05-27T09:49:44.856Z,101692.94
2018-05-27T09:52:10.742Z,101692.62
2018-05-27T09:54:36.677Z,101686.28
2018-05-27T09:57:02.632Z,101684.66
2018-05-27T09:59:28.595Z,101686.29
2018-05-27T10:01:54.559Z,101690.05
2018-05-27T10:04:20.504Z,101685.05
2018-05-27T10:06:46.382Z,101681.63
2018-05-27T10:09:12.353Z,101686.47
2018-05-27T10:11:38.765Z,101676.22
2018-05-27T10:14:05.459Z,101675.83
2018-05-27T10:16:32.170Z,101673.38
2018-05-27T10:18:58.209Z,101669.95
2018-05-27T10:21:24.071Z,101675.24
2018-05-27T10:23:50.091Z,101662.66
2018-05-27T10:26:16.015Z,101666.20
2018-05-27T10:28:41.892Z,101668.38
2018-05-27T10:31:07.810Z,101666.93
2018-05-27T10:33:33.779Z,101657.83
2018-05-27T10:35:59.757Z,101656.41
2018-05-27T10:38:25.649Z,101662.01
2018-05-27T10:40:51.570Z,101661.61
2018-05-27T10:43:17.545Z,101658.92
2018-05-27T10:45:43.417Z,101663.84
2018-05-27T10:48:09.433Z,101663.42
2018-05-27T10:50:36.264Z,101659.12
2018-05-27T10:53:02.187Z,101654.88
2018-05-27T10:55:28.165Z,101653.16
2018-05-27T10:57:54.056Z,101651.52
2018-05-27T11:00:20.038Z,101652.34
2018-05-27T11:02:46.007Z,101647.78
2018-05-27T11:05:11.942Z,101646.92
2018-05-27T11:07:38.196Z,101643.39
2018-05-27T11:10:04.135Z,101643.50
2018-05-27T11:12:30.107Z,101628.43
2018-05-27T11:14:56.016Z,101619.89
2018-05-27T11:17:23.059Z,101623.18
2018-05-27T11:19:49.847Z,101617.44
2018-05-27T11:22:15.821Z,101608.30
2018-05-27T11:24:41.877Z,101612.07
2018-05-27T11:27:07.754Z,101614.03
2018-05-27T11:29:34.198Z,101618.48
2018-05-27T11:32:00.175Z,101619.08
2018-05-27T11:34:26.067Z,101618.83
2018-05-27T11:36:52.048Z,101610.89
2018-05-27T11:39:18.146Z,101609.48
2018-05-27T11:41:44.862Z,101606.06
2018-05-27T11:44:10.795Z,101604.47
2018-05-27T11:46:36.727Z,101603.00
2018-05-27T11:49:02.731Z,101600.09
2018-05-27T11:51:28.615Z,101594.95
2018-05-27T11:53:54.586Z,101589.58
2018-05-27T11:56:20.536Z,101590.17
2018-05-27T11:58:46.427Z,101594.16
2018-05-27T12:01:12.442Z,101586.12
2018-05-27T12:03:38.361Z,101589.44
2018-05-27T12:06:04.280Z,101601.25
2018-05-27T12:08:30.327Z,101608.80
2018-05-27T12:10:56.236Z,101611.16
2018-05-27T12:13:23.062Z,101601.48
2018-05-27T12:15:49.026Z,101599.97
2018-05-27T12:18:14.905Z,101590.84
2018-05-27T12:20:41.080Z,101586.63
2018-05-27T12:23:07.012Z,101589.22
2018-05-27T12:25:32.977Z,101592.91
2018-05-27T12:27:58.869Z,101597.55
2018-05-27T12:30:24.815Z,101592.33
2018-05-27T12:32:50.809Z,101585.56
2018-05-27T12:35:16.726Z,101577.03
2018-05-27T12:37:42.739Z,101575.20
2018-05-27T12:40:08.613Z,101570.83
2018-05-27T12:42:34.475Z,101563.76
2018-05-27T12:45:00.434Z,101566.36
2018-05-27T12:47:26.325Z,101563.82
2018-05-27T12:49:52.239Z,101559.66
2018-05-27T12:52:18.164Z,101560.96
2018-05-27T12:54:44.059Z,101556.15
2018-05-27T12:57:09.956Z,101552.63
2018-05-27T12:59:35.909Z,101549.10
2018-05-27T13:02:01.820Z,101542.97
2018-05-27T13:04:27.704Z,101539.92
2018-05-27T13:06:53.729Z,101537.95
2018-05-27T13:09:19.641Z,101534.08
2018-05-27T13:11:45.562Z,101535.03
2018-05-27T13:14:11.463Z,101535.48
2018-05-27T13:16:37.794Z,101528.21
2018-05-27T13:19:03.600Z,101526.84
2018-05-27T13:21:29.527Z,101523.73
2018-05-27T13:23:55.421Z,101515.30
2018-05-27T13:26:21.375Z,101520.27
2018-05-27T13:28:47.328Z,101507.53
2018-05-27T13:31:13.205Z,101514.54
2018-05-27T13:33:40.108Z,101503.09
2018-05-27T13:36:06.147Z,101507.82
2018-05-27T13:38:32.120Z,101510.44
2018-05-27T13:40:57.995Z,101500.64
2018-05-27T13:43:23.932Z,101496.91
2018-05-27T13:45:49.809Z,101497.19
2018-05-27T13:48:15.703Z,101505.09
2018-05-27T13:50:41.657Z,101500.25
2018-05-27T13:53:07.529Z,101500.12
2018-05-27T13:55:33.399Z,101501.52
2018-05-27T13:57:59.329Z,101495.15
2018-05-27T14:00:25.219Z,101498.66
2018-05-27T14:02:51.610Z,101489.86
2018-05-27T14:05:17.551Z,101497.83
2018-05-27T14:07:43.455Z,101502.39
2018-05-27T14:10:09.469Z,101497.34
2018-05-27T14:12:35.394Z,101491.33
2018-05-27T14:15:01.319Z,101501.45
2018-05-27T14:17:27.245Z,101503.79
2018-05-27T14:19:53.220Z,101506.44
2018-05-27T14:22:19.150Z,101502.72
2018-05-27T14:24:45.032Z,101502.66
2018-05-27T14:27:10.951Z,101508.05
2018-05-27T14:29:36.824Z,101504.17
2018-05-27T14:32:02.688Z,101514.25
2018-05-27T14:34:28.686Z,101515.68
2018-05-27T14:36:54.681Z,101521.46
2018-05-27T14:39:20.641Z,101519.42
2018-05-27T14:41:46.579Z,101525.75
2018-05-27T14:44:12.451Z,101516.95
2018-05-27T14:46:39.199Z,101505.02
2018-05-27T14:49:05.129Z,101502.82
2018-05-27T14:51:31.032Z,101503.33
2018-05-27T14:53:56.923Z,101505.59
2018-05-27T14:56:22.995Z,101502.58
2018-05-27T14:58:49.967Z,101501.36
2018-05-27T15:01:15.935Z,101500.12
2018-05-27T15:03:41.882Z,101501.97
2018-05-27T15:06:07.788Z,101504.52
2018-05-27T15:08:33.704Z,101503.83
2018-05-27T15:10:59.641Z,101507.51
2018-05-27T15:13:25.532Z,101501.84
2018-05-27T15:15:51.409Z,101505.40
2018-05-27T15:18:17.370Z,101504.38
2018-05-27T15:20:43.258Z,101497.36
2018-05-27T15:23:09.153Z,101494.39
2018-05-27T15:25:35.098Z,101500.19
2018-05-27T15:28:01.089Z,101494.05
2018-05-27T15:30:26.991Z,101492.27
2018-05-27T15:32:52.944Z,101497.05
2018-05-27T15:35:18.852Z,101495.49
2018-05-27T15:37:44.811Z,101488.19
2018-05-27T15:40:10.780Z,101482.82
2018-05-27T15:42:36.687Z,101480.84
2018-05-27T15:45:02.608Z,101478.03
2018-05-27T15:47:28.539Z,101479.82
2018-05-27T15:49:54.475Z,101474.15
2018-05-27T15:52:20.363Z,101471.14
2018-05-27T15:54:46.317Z,101479.02
2018-05-27T15:57:12.219Z,101478.44
2018-05-27T15:59:38.135Z,101467.65
2018-05-27T16:02:04.051Z,101470.09
2018-05-27T16:04:29.945Z,101466.73
2018-05-27T16:06:55.892Z,101462.02
2018-05-27T16:09:21.831Z,101458.41
2018-05-27T16:11:47.790Z,101468.92
2018-05-27T16:14:13.676Z,101468.78
2018-05-27T16:16:39.667Z,101465.30
2018-05-27T16:19:05.582Z,101456.69
2018-05-27T16:21:31.579Z,101460.19
2018-05-27T16:23:57.533Z,101472.08
2018-05-27T16:26:23.443Z,101471.44
2018-05-27T16:28:49.319Z,101464.98
2018-05-27T16:31:15.362Z,101468.31
2018-05-27T16:33:41.266Z,101461.36
2018-05-27T16:36:07.204Z,101461.38
2018-05-27T16:38:33.136Z,101459.31
2018-05-27T16:40:59.084Z,101470.20
2018-05-27T16:43:24.970Z,101470.02
2018-05-27T16:45:51.016Z,101468.91
2018-05-27T16:48:17.759Z,101476.35
2018-05-27T16:50:43.698Z,101475.77
2018-05-27T16:53:09.620Z,101470.41
2018-05-27T16:55:35.625Z,101477.27
2018-05-27T16:58:01.508Z,101476.34
2018-05-27T17:00:27.469Z,101474.20
2018-05-27T17:02:53.352Z,101478.63
2018-05-27T17:05:19.247Z,101487.37
2018-05-27T17:07:45.159Z,101478.59
2018-05-27T17:10:11.029Z,101476.02
2018-05-27T17:12:36.951Z,101472.77
2018-05-27T17:15:02.932Z,101477.34
2018-05-27T17:17:28.815Z,101485.56
2018-05-27T17:19:54.708Z,101487.95
2018-05-27T17:22:20.730Z,101486.15
2018-05-27T17:24:46.672Z,101479.84
2018-05-27T17:27:12.548Z,101480.82
2018-05-27T17:29:38.504Z,101478.67
2018-05-27T17:32:04.412Z,101480.70
2018-05-27T17:34:30.274Z,101488.61
2018-05-27T17:36:56.284Z,101495.84
2018-05-27T17:39:22.176Z,101500.02
2018-05-27T17:41:48.143Z,101500.61
2018-05-27T17:44:14.097Z,101515.85
2018-05-27T17:46:40.107Z,101508.57
2018-05-27T17:49:05.969Z,101501.72
2018-05-27T17:51:31.900Z,101511.34
2018-05-27T17:53:57.855Z,101511.45
2018-05-27T17:56:23.809Z,101509.17
2018-05-27T17:58:49.753Z,101508.22
2018-05-27T18:01:15.628Z,101506.77
2018-05-27T18:03:41.556Z,101505.78
2018-05-27T18:06:08.639Z,101507.98
2018-05-27T18:08:34.539Z,101509.70
2018-05-27T18:11:00.508Z,101507.66
2018-05-27T18:13:26.455Z,101504.27
2018-05-27T18:15:52.415Z,101500.98
2018-05-27T18:18:19.256Z,101502.82
2018-05-27T18:20:45.184Z,101498.17
2018-05-27T18:23:11.104Z,101506.22
2018-05-27T18:25:37.043Z,101506.06
2018-05-27T18:28:03.173Z,101514.45
2018-05-27T18:30:29.175Z,101516.74
2018-05-27T18:32:55.909Z,101522.20
2018-05-27T18:35:21.838Z,101529.03
2018-05-27T18:37:47.827Z,101540.86
2018-05-27T18:40:13.698Z,101526.84
2018-05-27T18:42:39.730Z,101543.85
2018-05-27T18:45:05.616Z,101553.07
2018-05-27T18:47:31.511Z,101547.08
2018-05-27T18:49:57.423Z,101553.62
2018-05-27T18:52:23.378Z,101561.44
2018-05-27T18:54:49.434Z,101554.95
2018-05-27T18:57:15.440Z,101554.91
2018-05-27T18:59:41.307Z,101550.86
2018-05-27T19:02:07.212Z,101561.49
2018-05-27T19:04:33.734Z,101562.91
2018-05-27T19:06:59.699Z,101574.29
2018-05-27T19:09:25.797Z,101578.19
2018-05-27T19:11:52.336Z,101582.34
2018-05-27T19:14:18.373Z,101586.95
2018-05-27T19:16:44.751Z,101591.93
2018-05-27T19:19:10.909Z,101593.69
2018-05-27T19:21:38.025Z,101592.66
2018-05-27T19:24:03.918Z,101595.70
2018-05-27T19:26:30.469Z,101591.78
2018-05-27T19:28:56.371Z,101604.98
2018-05-27T19:31:22.629Z,101602.34
2018-05-27T19:33:48.580Z,101600.86
2018-05-27T19:36:14.606Z,101601.44
2018-05-27T19:38:40.526Z,101600.61
2018-05-27T19:41:06.468Z,101607.05
2018-05-27T19:43:32.394Z,101602.31
2018-05-27T19:45:58.589Z,101600.80
2018-05-27T19:48:24.518Z,101599.27
2018-05-27T19:50:50.423Z,101592.34
2018-05-27T19:53:16.323Z,101592.70
2018-05-27T19:55:42.236Z,101600.27
2018-05-27T19:58:08.317Z,101595.73
2018-05-27T20:00:34.508Z,101594.86
2018-05-27T20:03:00.461Z,101593.92
2018-05-27T20:05:26.418Z,101593.13
2018-05-27T20:07:52.310Z,101591.86
2018-05-27T20:10:18.279Z,101585.47
2018-05-27T20:12:44.175Z,101587.02
2018-05-27T20:15:10.108Z,101580.30
2018-05-27T20:17:36.027Z,101582.80
2018-05-27T20:20:02.004Z,101578.05
2018-05-27T20:22:27.918Z,101575.72
2018-05-27T20:24:53.854Z,101570.62
2018-05-27T20:27:19.840Z,101572.59
2018-05-27T20:29:45.715Z,101571.27
2018-05-27T20:32:11.739Z,101572.67
2018-05-27T20:34:37.607Z,101581.38
2018-05-27T20:37:03.784Z,101575.41
2018-05-27T20:39:29.720Z,101572.97
2018-05-27T20:41:55.633Z,101576.27
2018-05-27T20:44:21.603Z,101580.81
2018-05-27T20:46:47.583Z,101584.69
2018-05-27T20:49:13.460Z,101588.98
2018-05-27T20:51:39.428Z,101584.38
2018-05-27T20:54:05.398Z,101581.80
2018-05-27T20:56:31.460Z,101589.21
2018-05-27T20:58:57.368Z,101582.93
2018-05-27T21:01:23.372Z,101578.56
2018-05-27T21:03:49.287Z,101584.28
2018-05-27T21:06:15.274Z,101586.45
2018-05-27T21:08:41.356Z,101586.28
2018-05-27T21:11:07.270Z,101589.97
2018-05-27T21:13:33.176Z,101590.91
2018-05-27T21:15:59.097Z,101594.23
2018-05-27T21:18:24.963Z,101597.52
2018-05-27T21:20:50.941Z,101601.77
2018-05-27T21:23:16.879Z,101602.52
2018-05-27T21:25:42.815Z,101606.89
2018-05-27T21:28:08.696Z,101603.27
2018-05-27T21:30:34.664Z,101606.89
2018-05-27T21:33:00.619Z,101604.13
2018-05-27T21:35:26.571Z,101606.86
2018-05-27T21:37:52.500Z,101606.08
2018-05-27T21:40:18.401Z,101611.11
2018-05-27T21:42:44.285Z,101608.84
2018-05-27T21:45:10.340Z,101609.06
2018-05-27T21:47:36.288Z,101614.34
2018-05-27T21:50:02.195Z,101610.27
2018-05-27T21:52:28.124Z,101600.70
2018-05-27T21:54:54.095Z,101603.52
2018-05-27T21:57:20.084Z,101600.88
2018-05-27T21:59:46.011Z,101596.44
2018-05-27T22:02:11.891Z,101590.21
2018-05-27T22:04:37.802Z,101596.05
2018-05-27T22:07:03.755Z,101596.11
2018-05-27T22:09:30.657Z,101600.00
2018-05-27T22:11:56.552Z,101594.88
2018-05-27T22:14:22.477Z,101590.95
2018-05-27T22:16:48.380Z,101587.20
2018-05-27T22:19:14.274Z,101592.92
2018-05-27T22:21:40.307Z,101592.53
2018-05-27T22:24:06.170Z,101598.50
2018-05-27T22:26:32.090Z,101596.51
2018-05-27T22:28:58.082Z,101600.69
2018-05-27T22:31:24.058Z,101602.37
2018-05-27T22:33:50.078Z,101603.70
2018-05-27T22:36:16.022Z,101598.23
2018-05-27T22:38:41.920Z,101603.17
2018-05-27T22:41:07.833Z,101603.64
2018-05-27T22:43:33.759Z,101605.92
2018-05-27T22:45:59.715Z,101600.11
2018-05-27T22:48:25.627Z,101602.16
2018-05-27T22:50:51.607Z,101601.34
2018-05-27T22:53:17.462Z,101601.17
2018-05-27T22:55:43.351Z,101602.48
2018-05-27T22:58:10.267Z,101599.28
2018-05-27T23:00:36.180Z,101604.06
2018-05-27T23:03:02.060Z,101599.44
2018-05-27T23:05:28.010Z,101599.63
2018-05-27T23:07:53.882Z,101594.97
2018-05-27T23:10:19.836Z,101594.99
2018-05-27T23:12:45.760Z,101599.21
2018-05-27T23:15:11.688Z,101594.12
2018-05-27T23:17:37.583Z,101592.06
2018-05-27T23:20:03.520Z,101584.91
2018-05-27T23:22:29.476Z,101587.34
2018-05-27T23:24:55.420Z,101595.38
2018-05-27T23:27:21.713Z,101594.19
2018-05-27T23:29:47.674Z,101594.44
2018-05-27T23:32:13.559Z,101593.48
2018-05-27T23:34:39.599Z,101593.92
2018-05-27T23:37:05.521Z,101594.58
2018-05-27T23:39:31.467Z,101587.05
2018-05-27T23:41:57.422Z,101587.70
2018-05-27T23:44:23.313Z,101590.17
2018-05-27T23:46:49.293Z,101592.31
2018-05-27T23:49:15.248Z,101591.36
2018-05-27T23:51:41.203Z,101595.55
2018-05-27T23:54:07.105Z,101587.73
2018-05-27T23:56:33.060Z,101587.99
2018-05-27T23:58:59.071Z,101585.25
